Welcome to Des Moines Iowa Weather. I am an independent private personal weather station on the Northwest Side of Des Moines, Iowa. Just East of Windsor Heights and just West of Glendale . This site is also mobile friendly.

There are no active watches, warnings or advisories


Visit our other weather sites:

Historical Data

Weather Station Setup



Weather Underground History page Text

Daily Summary for January 19, 2018 Units:  Metric    English   Both
« Previous Day
Next Day »
Daily Weekly Monthly Yearly Custom
  High: Low: Average:
Temperature: 8.1 °C -2.4 °C 3 °C
Dew Point: -0.6 °C -5.6 °C -2.5 °C
Humidity: 82 % 52 % 68 %
Wind Speed: 9.7 km/h 0 km/h 1.9 km/h
Wind Gust: 16.1 km/h - -
Wind:- - South
Pressure: 1013.1 hPa 1004.3 hPa -
Precipitation: 0.76 mm    
Historical Graphs
 
 
Tabular Data for January 19, 2018
Time Temperature Dew Point Pressure Wind Wind Speed Wind Gust Humidity Rainfall Rate (Hourly)
00:12 -1.8 °C -5 °C 1013.1 hPa Calm     79 % 0 mm
00:27 -1.8 °C -5 °C 1013.1 hPa Calm   1.6 km/h 80 % 0 mm
00:42 -1.7 °C -5 °C 1012.8 hPa Calm     80 % 0 mm
00:58 -1.7 °C -4.4 °C 1012.4 hPa Calm     80 % 0 mm
01:13 -1.7 °C -5 °C 1012.8 hPa Calm     79 % 0 mm
01:28 -2 °C -5 °C 1012.4 hPa Calm     79 % 0 mm
01:43 -2.3 °C -5.6 °C 1012.4 hPa South 1.6 km/h 3.2 km/h 79 % 0 mm
01:58 -2.4 °C -5 °C 1012.1 hPa Calm   1.6 km/h 81 % 0 mm
02:13 -2.2 °C -5 °C 1012.1 hPa Calm     82 % 0 mm
02:28 -2.1 °C -4.4 °C 1011.7 hPa Calm   1.6 km/h 82 % 0 mm
02:45 -2 °C -4.4 °C 1011.1 hPa South 3.2 km/h 4.8 km/h 82 % 0 mm
02:58 -1.8 °C -4.4 °C 1011.4 hPa Calm   3.2 km/h 82 % 0 mm
03:13 -1.6 °C -4.4 °C 1011.1 hPa Calm   6.4 km/h 81 % 0 mm
03:28 -1.4 °C -4.4 °C 1011.1 hPa South 3.2 km/h 4.8 km/h 81 % 0 mm
03:43 -1.2 °C -4.4 °C 1010.7 hPa Calm   4.8 km/h 80 % 0 mm
03:58 -1.1 °C -3.9 °C 1010.7 hPa Calm   3.2 km/h 80 % 0 mm
04:13 -1.1 °C -4.4 °C 1010.7 hPa Calm   3.2 km/h 79 % 0 mm
04:28 -1.2 °C -4.4 °C 1010.7 hPa Calm   3.2 km/h 80 % 0 mm
04:43 -1.2 °C -4.4 °C 1010.4 hPa Calm   3.2 km/h 80 % 0 mm
04:58 -1.3 °C -4.4 °C 1010.4 hPa Calm   1.6 km/h 80 % 0 mm
05:13 -1.2 °C -3.9 °C 1010.4 hPa Calm   1.6 km/h 81 % 0 mm
05:28 -1.2 °C -3.9 °C 1010.4 hPa Calm   3.2 km/h 81 % 0 mm
05:43 -1.2 °C -3.9 °C 1010.4 hPa South 1.6 km/h 3.2 km/h 81 % 0 mm
05:58 -1.2 °C -4.4 °C 1010 hPa Calm   3.2 km/h 80 % 0 mm
06:13 -1.2 °C -3.9 °C 1009.7 hPa Calm   1.6 km/h 81 % 0 mm
06:28 -1.1 °C -3.9 °C 1009.7 hPa Calm   3.2 km/h 81 % 0 mm
06:43 -1.1 °C -3.9 °C 1009.7 hPa Calm   3.2 km/h 81 % 0 mm
06:58 -0.9 °C -3.9 °C 1009.7 hPa Calm   3.2 km/h 81 % 0 mm
07:13 -0.7 °C -3.9 °C 1009.4 hPa South 1.6 km/h 6.4 km/h 80 % 0 mm
07:28 -0.6 °C -3.9 °C 1009 hPa SSW 1.6 km/h 8 km/h 79 % 0 mm
07:43 -0.2 °C -3.9 °C 1009 hPa SSW 8 km/h 8 km/h 78 % 0 mm
07:58 0.1 °C -3.3 °C 1009 hPa South 4.8 km/h 9.7 km/h 77 % 0 mm
08:13 0.4 °C -3.3 °C 1009.4 hPa SSW 1.6 km/h 8 km/h 76 % 0 mm
08:28 0.7 °C -3.3 °C 1009.4 hPa Calm   6.4 km/h 75 % 0 mm
08:44 0.9 °C -3.3 °C 1009.4 hPa SSW 1.6 km/h 12.9 km/h 74 % 0 mm
08:59 1.5 °C -2.8 °C 1009.4 hPa SSW 3.2 km/h 11.3 km/h 72 % 0 mm
09:14 2 °C -2.8 °C 1009 hPa SSW 3.2 km/h 14.5 km/h 70 % 0 mm
09:29 2.5 °C -2.8 °C 1009 hPa SSW 3.2 km/h 11.3 km/h 68 % 0 mm
09:44 2.9 °C -2.8 °C 1009 hPa SSE 8 km/h 11.3 km/h 66 % 0 mm
09:59 3.4 °C -2.8 °C 1008.7 hPa SSW 4.8 km/h 12.9 km/h 65 % 0 mm
10:14 3.7 °C -2.8 °C 1008.7 hPa South 4.8 km/h 11.3 km/h 63 % 0 mm
10:29 4.1 °C -2.8 °C 1008.4 hPa South 4.8 km/h 14.5 km/h 62 % 0 mm
10:44 4.3 °C -2.8 °C 1008.4 hPa Calm   16.1 km/h 62 % 0 mm
10:59 4.8 °C -2.2 °C 1008 hPa SSE 8 km/h 11.3 km/h 61 % 0 mm
11:14 5.1 °C -2.2 °C 1007.7 hPa Calm   9.7 km/h 60 % 0.25 mm
11:29 5.4 °C -2.2 °C 1007.7 hPa South 1.6 km/h 9.7 km/h 58 % 0.25 mm
11:44 5.6 °C -2.2 °C 1007.7 hPa Calm   11.3 km/h 58 % 0.51 mm
11:59 5.9 °C -1.7 °C 1007.3 hPa Calm   8 km/h 58 % 0.51 mm
12:14 6.2 °C -2.2 °C 1007.3 hPa Calm   9.7 km/h 55 % 0.51 mm
12:29 6.4 °C -1.7 °C 1006.7 hPa South 9.7 km/h 9.7 km/h 56 % 0.51 mm
12:44 6.6 °C -2.2 °C 1006.7 hPa South 1.6 km/h 9.7 km/h 54 % 0.25 mm
12:59 6.5 °C -2.2 °C 1006 hPa SSW 4.8 km/h 11.3 km/h 55 % 0.25 mm
13:15 6.6 °C -2.2 °C 1005.6 hPa Calm   14.5 km/h 54 % 0 mm
13:30 7.1 °C -1.7 °C 1005.6 hPa SSW 9.7 km/h 16.1 km/h 54 % 0 mm
13:45 7.4 °C -1.7 °C 1005.3 hPa South 3.2 km/h 8 km/h 53 % 0 mm
14:00 7.7 °C -1.7 °C 1005 hPa Calm   11.3 km/h 52 % 0 mm
14:15 7.9 °C -1.1 °C 1005 hPa SSW 1.6 km/h 14.5 km/h 53 % 0 mm
14:30 8 °C -1.7 °C 1004.6 hPa SSW 1.6 km/h 11.3 km/h 52 % 0 mm
14:45 8.1 °C -1.1 °C 1004.6 hPa Calm   12.9 km/h 53 % 0 mm
15:00 8.1 °C -0.6 °C 1004.6 hPa SSE 8 km/h 8 km/h 54 % 0 mm
15:15 8.1 °C -1.1 °C 1004.3 hPa SW 3.2 km/h 9.7 km/h 54 % 0 mm
15:30 8.1 °C -1.1 °C 1005 hPa Calm   6.4 km/h 54 % 0 mm
15:45 8.1 °C -1.1 °C 1005 hPa Calm   11.3 km/h 54 % 0 mm
16:00 8 °C -1.1 °C 1005 hPa Calm   16.1 km/h 54 % 0 mm
16:15 7.8 °C -0.6 °C 1005 hPa SSW 3.2 km/h 11.3 km/h 55 % 0 mm
16:30 7.5 °C -0.6 °C 1005 hPa SSW 3.2 km/h 11.3 km/h 57 % 0 mm
16:45 7.2 °C -0.6 °C 1005.3 hPa Calm   9.7 km/h 58 % 0 mm
17:00 6.8 °C -0.6 °C 1005 hPa South 8 km/h 14.5 km/h 59 % 0 mm
17:15 6.6 °C -0.6 °C 1004.6 hPa South 1.6 km/h 8 km/h 60 % 0 mm
17:30 6.3 °C -0.6 °C 1004.6 hPa SSW 3.2 km/h 8 km/h 61 % 0 mm
17:45 6.2 °C -1.1 °C 1005 hPa SSW 4.8 km/h 9.7 km/h 61 % 0 mm
18:00 6 °C -1.1 °C 1006.7 hPa North 4.8 km/h 12.9 km/h 61 % 0 mm
18:15 5.7 °C -1.1 °C 1005.6 hPa SSW 6.4 km/h 11.3 km/h 62 % 0 mm
18:30 5.6 °C -1.1 °C 1005.6 hPa South 4.8 km/h 11.3 km/h 62 % 0 mm
18:45 5.4 °C -1.1 °C 1005.6 hPa South 4.8 km/h 8 km/h 63 % 0 mm
19:00 5.2 °C -1.1 °C 1006 hPa South 1.6 km/h 8 km/h 63 % 0 mm
19:15 5.1 °C -1.1 °C 1006.3 hPa South 4.8 km/h 4.8 km/h 64 % 0 mm
19:30 4.9 °C -1.7 °C 1006.7 hPa Calm   8 km/h 64 % 0 mm
19:45 4.9 °C -1.1 °C 1006.7 hPa Calm   9.7 km/h 65 % 0 mm
20:00 4.8 °C -1.1 °C 1007 hPa Calm   4.8 km/h 65 % 0 mm
20:15 4.6 °C -1.1 °C 1007 hPa SSE 3.2 km/h 4.8 km/h 66 % 0 mm
20:30 4.6 °C -1.1 °C 1007.3 hPa Calm   4.8 km/h 67 % 0 mm
20:45 4.5 °C -1.1 °C 1007.3 hPa SW 4.8 km/h 8 km/h 67 % 0 mm
21:00 4.5 °C -1.1 °C 1007.7 hPa Calm   3.2 km/h 67 % 0 mm
21:15 4.4 °C -1.1 °C 1007.3 hPa SSW 3.2 km/h 4.8 km/h 68 % 0 mm
21:30 4.4 °C -1.1 °C 1007.7 hPa Calm   12.9 km/h 68 % 0 mm
21:45 4.3 °C -1.1 °C 1007.7 hPa Calm   4.8 km/h 68 % 0 mm
22:00 4.2 °C -1.1 °C 1008 hPa Calm   4.8 km/h 69 % 0 mm
22:15 4.1 °C -1.1 °C 1008 hPa Calm   3.2 km/h 69 % 0 mm
22:30 3.8 °C -1.1 °C 1008 hPa Calm   3.2 km/h 70 % 0 mm
22:45 3.6 °C -1.1 °C 1008 hPa Calm   8 km/h 71 % 0 mm
23:00 3.3 °C -1.1 °C 1008.4 hPa Calm   4.8 km/h 72 % 0 mm
23:15 3.1 °C -1.1 °C 1008.4 hPa Calm     73 % 0 mm
23:30 2.9 °C -1.7 °C 1008.4 hPa Calm     73 % 0 mm
23:45 2.7 °C -1.7 °C 1008.4 hPa Calm     74 % 0 mm
Des Moines Weather and Climate
Compliments of Weather Underground - 3 mb

Script developed by  Jim McMurry - jmcmurry@mwt.net Adapted for the template by  Wim van der Kuil - Leuven-Template.eu

You find our weather info also at:

Weather Underground

Equipment we use:

Weather-station
Davis VP2 Plus

Weather-program
Davis Weatherlink.Com

Weather-server
iMac (Retina 4K, 21.5-inch, Late 2015)

Provider
Hostmonster.com

Davis VP2 Plus

Davis Weatherlink.Com

iMac (Retina 4K, 21.5-inch, Late 2015)

Hostmonster.com